Time;durP1;ratioP1;P1;durP2;ratioP2;P2;SDS_P1;SDS_P2;PMS_P1;PMS_P2;Temp;Humidity;BMP_temperature;BMP_pressure;BME280_temperature;BME280_humidity;BME280_pressure;Samples;Min_cycle;Max_cycle;Signal;HPM_P1;HPM_P2
2024/04/02 00:00:44;;;;;;;13.90;13.10;;;9.40;99.90;;;;;;4981910;28;20045;-70
2024/04/02 00:03:12;;;;;;;13.93;13.02;;;9.40;99.90;;;;;;4993076;28;20408;-71
2024/04/02 00:05:39;;;;;;;13.65;12.65;;;9.30;99.90;;;;;;4982053;28;20354;-70
2024/04/02 00:08:07;;;;;;;15.00;13.90;;;9.30;99.90;;;;;;5002295;28;20049;-68
2024/04/02 00:10:36;;;;;;;14.50;13.60;;;9.30;99.90;;;;;;4997312;28;20045;-72
2024/04/02 00:13:03;;;;;;;13.23;12.18;;;9.30;99.90;;;;;;4994659;28;20045;-71
2024/04/02 00:15:29;;;;;;;13.90;13.10;;;9.30;99.90;;;;;;4994958;28;20060;-69
2024/04/02 00:17:58;;;;;;;13.48;12.50;;;9.30;99.90;;;;;;4998974;28;20076;-71
2024/04/02 00:20:25;;;;;;;13.45;12.60;;;9.20;99.90;;;;;;4995850;28;20053;-71
2024/04/02 00:22:51;;;;;;;13.40;12.60;;;9.20;99.90;;;;;;4997240;28;20046;-70
2024/04/02 00:25:17;;;;;;;13.00;12.30;;;9.20;99.90;;;;;;5018914;28;20809;-72
2024/04/02 00:27:44;;;;;;;13.45;12.60;;;9.10;99.90;;;;;;4981683;28;20674;-69
2024/04/02 00:30:13;;;;;;;13.02;12.32;;;9.20;99.90;;;;;;4982541;28;20046;-71
2024/04/02 00:32:39;;;;;;;12.93;12.07;;;9.20;99.90;;;;;;4985176;28;20052;-71
2024/04/02 00:35:05;;;;;;;12.85;11.82;;;9.20;99.90;;;;;;4985390;28;20128;-71
2024/04/02 00:37:31;;;;;;;13.32;12.52;;;9.20;99.90;;;;;;5002401;28;20046;-70
2024/04/02 00:40:01;;;;;;;12.65;11.80;;;9.20;99.90;;;;;;5017548;28;20132;-70
2024/04/02 00:42:27;;;;;;;12.73;11.77;;;9.30;99.90;;;;;;4991691;28;20074;-70
2024/04/02 00:44:53;;;;;;;13.48;12.45;;;9.30;99.90;;;;;;4975934;28;20986;-68
2024/04/02 00:47:20;;;;;;;12.85;12.20;;;9.30;99.90;;;;;;4999529;28;20045;-70
2024/04/02 00:49:47;;;;;;;13.38;12.27;;;9.20;99.90;;;;;;4992507;28;20042;-71
2024/04/02 00:52:13;;;;;;;12.75;11.98;;;9.20;99.90;;;;;;4996556;28;20057;-71
2024/04/02 00:54:41;;;;;;;12.95;12.13;;;9.20;99.90;;;;;;4969349;28;20045;-71
2024/04/02 00:57:08;;;;;;;12.55;11.80;;;9.20;99.90;;;;;;4997358;28;20118;-71
2024/04/02 00:59:38;;;;;;;13.18;12.27;;;9.20;99.90;;;;;;5014056;28;20568;-71
2024/04/02 01:02:07;;;;;;;13.25;12.45;;;9.20;99.90;;;;;;4985920;28;20104;-70
2024/04/02 01:04:34;;;;;;;13.45;12.65;;;9.20;99.90;;;;;;4977163;28;20049;-69
2024/04/02 01:07:02;;;;;;;13.52;12.80;;;9.20;99.90;;;;;;5017694;28;20041;-71
2024/04/02 01:09:29;;;;;;;13.52;12.80;;;9.20;99.90;;;;;;5001713;28;20052;-70
2024/04/02 01:11:57;;;;;;;13.75;12.68;;;9.20;99.90;;;;;;4998962;28;20796;-71
2024/04/02 01:14:23;;;;;;;14.00;13.00;;;9.20;99.90;;;;;;4966898;28;20050;-70
2024/04/02 01:16:49;;;;;;;14.73;13.75;;;9.20;99.90;;;;;;4996192;28;20720;-70
2024/04/02 01:19:16;;;;;;;13.98;13.10;;;9.20;99.90;;;;;;5000151;28;20413;-70
2024/04/02 01:21:42;;;;;;;14.63;13.60;;;9.10;99.90;;;;;;4969730;28;20049;-71
2024/04/02 01:24:08;;;;;;;14.40;13.27;;;9.20;99.90;;;;;;4957060;28;20073;-71
2024/04/02 01:26:34;;;;;;;14.50;13.50;;;9.10;99.90;;;;;;4987736;28;20045;-71
2024/04/02 01:29:03;;;;;;;14.00;12.95;;;9.10;99.90;;;;;;4989508;28;20046;-70
2024/04/02 01:31:32;;;;;;;13.07;12.38;;;9.00;99.90;;;;;;4993536;28;20046;-69
2024/04/02 01:33:59;;;;;;;14.00;12.63;;;8.90;99.90;;;;;;4993066;28;20049;-71
2024/04/02 01:36:25;;;;;;;13.80;12.88;;;8.90;99.90;;;;;;4975469;28;20068;-69
2024/04/02 01:38:51;;;;;;;12.90;12.02;;;8.90;99.90;;;;;;4983854;28;20341;-69
2024/04/02 01:41:17;;;;;;;13.82;12.77;;;8.80;99.90;;;;;;4964365;28;20434;-70
2024/04/02 01:43:43;;;;;;;13.95;12.95;;;8.80;99.90;;;;;;4980031;28;20037;-71
2024/04/02 01:46:10;;;;;;;14.18;13.27;;;8.80;99.90;;;;;;4977650;28;20041;-70
2024/04/02 01:48:35;;;;;;;13.07;12.25;;;8.80;99.90;;;;;;4981254;28;20050;-71
2024/04/02 01:51:02;;;;;;;13.70;12.90;;;8.80;99.90;;;;;;4979563;28;20044;-69
2024/04/02 01:53:28;;;;;;;12.95;12.18;;;8.80;99.90;;;;;;4976743;28;20707;-70
2024/04/02 01:55:54;;;;;;;13.55;12.77;;;8.90;99.90;;;;;;4979838;28;20116;-69
2024/04/02 01:58:20;;;;;;;13.13;12.43;;;8.90;99.90;;;;;;5004607;28;20152;-70
2024/04/02 02:00:46;;;;;;;14.40;13.25;;;8.90;99.90;;;;;;4968918;28;20037;-69
2024/04/02 02:03:12;;;;;;;13.32;12.38;;;8.90;99.90;;;;;;4966893;28;20671;-70
2024/04/02 02:05:38;;;;;;;13.63;12.80;;;9.00;99.90;;;;;;4995686;28;20585;-70
2024/04/02 02:08:06;;;;;;;13.85;12.90;;;8.90;99.90;;;;;;4995729;28;20034;-70
2024/04/02 02:10:35;;;;;;;14.40;13.25;;;8.90;99.90;;;;;;4996555;28;20049;-71
2024/04/02 02:13:04;;;;;;;14.50;13.52;;;8.90;99.90;;;;;;4993353;28;20049;-71
2024/04/02 02:15:30;;;;;;;14.07;13.27;;;8.90;99.90;;;;;;4971145;28;20046;-70
2024/04/02 02:17:56;;;;;;;14.38;13.48;;;8.90;99.90;;;;;;4981054;28;20056;-71
2024/04/02 02:20:22;;;;;;;13.93;12.82;;;8.90;99.90;;;;;;4974921;28;20121;-70
2024/04/02 02:22:48;;;;;;;13.93;12.95;;;8.90;99.90;;;;;;4973411;28;20307;-70
2024/04/02 02:25:14;;;;;;;12.93;12.32;;;8.80;99.90;;;;;;4991735;28;20038;-69
2024/04/02 02:27:40;;;;;;;13.73;12.93;;;8.80;99.90;;;;;;4973193;28;20037;-71
2024/04/02 02:30:07;;;;;;;14.73;13.52;;;8.90;99.90;;;;;;4994410;28;20043;-70
2024/04/02 02:32:34;;;;;;;13.77;13.07;;;8.90;99.90;;;;;;4980059;28;20061;-71
2024/04/02 02:35:01;;;;;;;14.48;13.23;;;8.90;99.90;;;;;;4981644;28;20077;-70
2024/04/02 02:37:28;;;;;;;14.70;13.73;;;8.90;99.90;;;;;;4973335;28;20046;-69
2024/04/02 02:39:54;;;;;;;14.18;13.25;;;8.90;99.90;;;;;;4959372;28;20060;-71
2024/04/02 02:42:21;;;;;;;14.30;13.27;;;8.90;99.90;;;;;;4995280;28;20041;-71
2024/04/02 02:44:47;;;;;;;13.80;13.00;;;8.90;99.90;;;;;;4958136;28;20046;-70
2024/04/02 02:47:14;;;;;;;14.57;13.75;;;8.90;99.90;;;;;;4984214;28;20046;-71
2024/04/02 02:49:40;;;;;;;14.15;13.02;;;8.90;99.90;;;;;;4988094;28;20096;-70
2024/04/02 02:52:06;;;;;;;15.30;13.73;;;8.90;99.90;;;;;;5010522;28;20547;-71
2024/04/02 02:54:32;;;;;;;14.60;13.57;;;8.90;99.90;;;;;;4997655;28;20642;-72
2024/04/02 02:56:58;;;;;;;14.85;13.88;;;8.90;99.90;;;;;;4972331;28;20526;-70
2024/04/02 02:59:24;;;;;;;15.00;14.00;;;8.90;99.90;;;;;;5022232;28;20060;-71
2024/04/02 03:01:50;;;;;;;14.18;13.38;;;8.90;99.90;;;;;;4978596;28;20042;-70
2024/04/02 03:04:16;;;;;;;17.98;14.25;;;8.90;99.90;;;;;;4978180;28;20100;-70
2024/04/02 03:06:42;;;;;;;14.80;13.68;;;8.80;99.90;;;;;;4977333;28;20049;-71
2024/04/02 03:09:10;;;;;;;15.40;14.20;;;8.80;99.90;;;;;;4974999;28;20049;-71
2024/04/02 03:11:37;;;;;;;14.73;13.93;;;8.80;99.90;;;;;;4992627;28;22865;-71
2024/04/02 03:14:03;;;;;;;15.00;14.00;;;8.80;99.90;;;;;;4982280;28;20053;-71
2024/04/02 03:16:29;;;;;;;15.15;14.15;;;8.80;99.90;;;;;;4997574;28;20206;-71
2024/04/02 03:18:56;;;;;;;15.30;14.07;;;8.80;99.90;;;;;;4990980;28;20517;-72
2024/04/02 03:21:22;;;;;;;14.65;13.82;;;8.80;99.90;;;;;;4973028;28;20042;-71
2024/04/02 03:23:48;;;;;;;15.05;14.15;;;8.90;99.90;;;;;;4972332;28;20532;-71
2024/04/02 03:26:15;;;;;;;14.98;14.07;;;8.80;99.90;;;;;;4996521;28;20062;-72
2024/04/02 03:28:41;;;;;;;15.07;14.00;;;8.90;99.90;;;;;;4988584;28;20041;-71
2024/04/02 03:31:10;;;;;;;14.70;13.90;;;8.80;99.90;;;;;;4959380;28;20046;-71
2024/04/02 03:33:36;;;;;;;14.60;13.68;;;8.80;99.90;;;;;;4973354;28;20058;-71
2024/04/02 03:36:05;;;;;;;14.90;13.88;;;8.80;99.90;;;;;;4985382;28;20060;-70
2024/04/02 03:38:32;;;;;;;15.57;14.43;;;8.80;99.90;;;;;;4995671;28;20050;-70
2024/04/02 03:41:13;;;;;;;15.85;14.70;;;8.80;99.90;;;;;;4978109;28;20046;-71
2024/04/02 03:43:43;;;;;;;15.98;14.63;;;8.80;99.90;;;;;;4987466;28;20432;-71
2024/04/02 03:46:11;;;;;;;14.95;13.98;;;8.80;99.90;;;;;;4997998;28;20433;-68
2024/04/02 03:48:37;;;;;;;15.10;14.05;;;8.70;99.90;;;;;;4990741;28;20461;-71
2024/04/02 03:51:04;;;;;;;15.43;14.20;;;8.80;99.90;;;;;;4992997;28;21361;-72
2024/04/02 03:53:30;;;;;;;14.60;13.80;;;8.80;99.90;;;;;;4987342;28;20787;-71
2024/04/02 03:55:57;;;;;;;15.27;14.13;;;8.80;99.90;;;;;;4977233;28;20057;-71
2024/04/02 03:58:23;;;;;;;15.65;14.48;;;8.80;99.90;;;;;;4980342;28;20053;-71
2024/04/02 04:00:50;;;;;;;16.35;14.88;;;8.70;99.90;;;;;;4998076;28;20061;-70
2024/04/02 04:03:17;;;;;;;15.73;14.65;;;8.70;99.90;;;;;;4993603;28;20058;-70
2024/04/02 04:05:46;;;;;;;15.40;14.40;;;8.70;99.90;;;;;;4998857;28;20037;-71
2024/04/02 04:08:12;;;;;;;15.98;15.02;;;8.80;99.90;;;;;;5016581;28;20049;-71
2024/04/02 04:10:38;;;;;;;16.08;14.77;;;8.80;99.90;;;;;;5015467;28;20038;-70
2024/04/02 04:13:05;;;;;;;15.90;14.75;;;8.70;99.90;;;;;;4994748;28;20050;-71
2024/04/02 04:15:31;;;;;;;16.67;15.38;;;8.70;99.90;;;;;;4968047;28;20411;-71
2024/04/02 04:17:57;;;;;;;16.77;15.32;;;8.70;99.90;;;;;;4997666;28;20048;-70
2024/04/02 04:20:29;;;;;;;15.52;14.52;;;8.70;99.90;;;;;;4982381;28;20065;-71
2024/04/02 04:22:55;;;;;;;15.25;14.20;;;8.70;99.90;;;;;;4995432;28;20046;-72
2024/04/02 04:25:21;;;;;;;16.08;14.68;;;8.70;99.90;;;;;;5011118;28;22295;-69
2024/04/02 04:27:47;;;;;;;15.73;14.52;;;8.70;99.90;;;;;;4991375;28;20084;-71
2024/04/02 04:30:13;;;;;;;16.67;15.55;;;8.70;99.90;;;;;;4992647;28;20045;-71
2024/04/02 04:32:40;;;;;;;16.30;15.25;;;8.70;99.90;;;;;;4976345;28;20058;-72
2024/04/02 04:35:06;;;;;;;15.35;14.35;;;8.70;99.90;;;;;;4997364;28;20116;-71
2024/04/02 04:37:33;;;;;;;16.13;14.95;;;8.70;99.90;;;;;;5006188;28;20073;-70
2024/04/02 04:39:59;;;;;;;19.17;15.10;;;8.70;99.90;;;;;;5015320;28;20052;-71
2024/04/02 04:42:27;;;;;;;16.98;15.23;;;8.70;99.90;;;;;;4984811;28;20045;-71
2024/04/02 04:44:53;;;;;;;15.10;14.20;;;8.70;99.90;;;;;;5014496;28;20104;-70
2024/04/02 04:47:19;;;;;;;15.52;14.45;;;8.60;99.90;;;;;;4993320;28;20717;-70
2024/04/02 04:49:45;;;;;;;16.05;14.75;;;8.60;99.90;;;;;;4993180;28;20050;-70
2024/04/02 04:52:11;;;;;;;16.27;15.20;;;8.60;99.90;;;;;;4959481;28;20995;-69
2024/04/02 04:54:37;;;;;;;17.58;16.20;;;8.60;99.90;;;;;;4996912;28;20501;-71
2024/04/02 04:57:03;;;;;;;16.73;15.20;;;8.60;99.90;;;;;;5000463;28;20052;-70
2024/04/02 04:59:29;;;;;;;16.52;15.32;;;8.60;99.90;;;;;;4983544;28;20056;-70
2024/04/02 05:01:55;;;;;;;15.93;14.82;;;8.60;99.90;;;;;;4993788;28;20128;-70
2024/04/02 05:04:22;;;;;;;17.38;15.73;;;8.60;99.90;;;;;;5009193;28;20524;-70
2024/04/02 05:06:52;;;;;;;15.63;14.55;;;8.60;99.90;;;;;;4982479;28;20053;-69
2024/04/02 05:09:20;;;;;;;17.00;15.77;;;8.60;99.90;;;;;;4992172;28;20056;-69
2024/04/02 05:11:46;;;;;;;16.85;15.55;;;8.60;99.90;;;;;;4976402;28;21143;-71
2024/04/02 05:14:13;;;;;;;16.33;15.02;;;8.60;99.90;;;;;;5013067;28;20062;-70
2024/04/02 05:16:39;;;;;;;16.20;15.10;;;8.60;99.90;;;;;;5000715;28;20588;-71
2024/04/02 05:19:05;;;;;;;16.98;15.52;;;8.60;99.90;;;;;;4994319;28;20050;-70
2024/04/02 05:21:31;;;;;;;21.13;18.23;;;8.60;99.90;;;;;;5007888;28;20191;-71
2024/04/02 05:23:57;;;;;;;18.83;17.48;;;8.60;99.90;;;;;;4999679;28;20041;-70
2024/04/02 05:26:24;;;;;;;18.23;17.05;;;8.60;99.90;;;;;;5002657;28;20500;-71
2024/04/02 05:28:50;;;;;;;17.65;16.45;;;8.60;99.90;;;;;;4994743;28;20042;-69
2024/04/02 05:31:16;;;;;;;16.67;15.60;;;8.60;99.90;;;;;;5009587;28;20050;-71
2024/04/02 05:33:43;;;;;;;18.80;17.35;;;8.60;99.90;;;;;;4992418;28;20591;-71
2024/04/02 05:36:09;;;;;;;18.98;17.65;;;8.60;99.90;;;;;;4998325;28;20065;-72
2024/04/02 05:38:35;;;;;;;18.70;17.33;;;8.60;99.90;;;;;;4964599;28;20323;-71
2024/04/02 05:41:01;;;;;;;19.48;17.90;;;8.60;99.90;;;;;;4997033;28;20046;-71
2024/04/02 05:43:27;;;;;;;19.58;18.10;;;8.60;99.90;;;;;;4980113;28;20449;-70
2024/04/02 05:45:54;;;;;;;20.23;18.35;;;8.60;99.90;;;;;;4997573;28;20042;-71
2024/04/02 05:48:19;;;;;;;18.02;16.63;;;8.60;99.90;;;;;;5008225;28;20037;-70
2024/04/02 05:50:55;;;;;;;16.85;15.75;;;8.60;99.90;;;;;;4999760;28;20045;-69
2024/04/02 05:53:21;;;;;;;16.05;15.02;;;8.50;99.90;;;;;;5002408;28;20049;-71
2024/04/02 05:55:47;;;;;;;16.30;15.13;;;8.50;99.90;;;;;;5006127;28;20034;-70
2024/04/02 05:58:14;;;;;;;16.88;15.77;;;8.40;99.90;;;;;;4984598;28;20247;-70
2024/04/02 06:00:41;;;;;;;18.33;16.85;;;8.40;99.90;;;;;;5036470;28;20109;-71
2024/04/02 06:03:07;;;;;;;20.63;19.02;;;8.40;99.90;;;;;;4972239;28;20057;-71
2024/04/02 06:05:33;;;;;;;19.80;18.30;;;8.40;99.90;;;;;;4975398;28;20095;-71
2024/04/02 06:07:59;;;;;;;22.67;20.63;;;8.50;99.90;;;;;;5009001;28;20879;-71
2024/04/02 06:10:27;;;;;;;21.77;19.90;;;8.50;99.90;;;;;;4997275;28;20096;-71
2024/04/02 06:12:53;;;;;;;19.98;18.58;;;8.50;99.90;;;;;;4972390;28;20052;-69
2024/04/02 06:15:21;;;;;;;19.77;18.30;;;8.50;99.90;;;;;;4977783;28;20050;-70
2024/04/02 06:17:47;;;;;;;21.73;19.88;;;8.50;99.90;;;;;;4980369;28;20056;-71
2024/04/02 06:20:13;;;;;;;21.95;19.98;;;8.50;99.90;;;;;;4973788;28;20065;-70
2024/04/02 06:22:39;;;;;;;20.60;19.15;;;8.50;99.90;;;;;;4978559;28;20045;-70
2024/04/02 06:25:05;;;;;;;20.70;19.15;;;8.50;99.90;;;;;;4994816;28;20041;-70
2024/04/02 06:27:32;;;;;;;21.95;19.83;;;8.50;99.90;;;;;;4998061;28;20046;-70
2024/04/02 06:29:58;;;;;;;19.85;18.13;;;8.60;99.90;;;;;;5016620;28;20045;-69
2024/04/02 06:32:24;;;;;;;20.40;18.77;;;8.60;99.90;;;;;;5025904;28;20042;-71
2024/04/02 06:34:50;;;;;;;21.92;20.35;;;8.60;99.90;;;;;;4988577;28;20096;-70
2024/04/02 06:37:16;;;;;;;20.00;18.58;;;8.60;99.90;;;;;;4993023;28;20137;-70
2024/04/02 06:39:42;;;;;;;20.77;19.08;;;8.60;99.90;;;;;;5001840;28;20049;-71
2024/04/02 06:42:09;;;;;;;19.60;18.30;;;8.60;99.90;;;;;;4983069;28;20654;-68
2024/04/02 06:44:35;;;;;;;20.60;19.25;;;8.60;99.90;;;;;;4996425;28;20041;-69
2024/04/02 06:47:01;;;;;;;20.25;18.73;;;8.60;99.90;;;;;;4990415;28;20038;-71
2024/04/02 06:49:27;;;;;;;19.35;18.13;;;8.60;99.90;;;;;;5000981;28;20052;-70
2024/04/02 06:51:53;;;;;;;18.80;17.55;;;8.60;99.90;;;;;;4990156;28;20054;-70
2024/04/02 06:54:20;;;;;;;18.92;17.63;;;8.60;99.90;;;;;;4994857;28;20124;-70
2024/04/02 06:56:46;;;;;;;20.42;18.33;;;8.70;99.90;;;;;;4962159;28;20530;-71
2024/04/02 06:59:12;;;;;;;20.10;18.55;;;8.70;99.90;;;;;;4972231;28;20061;-69
2024/04/02 07:01:38;;;;;;;20.42;18.92;;;8.70;99.90;;;;;;4991410;28;20034;-70
2024/04/02 07:04:04;;;;;;;19.70;18.27;;;8.70;99.90;;;;;;4986027;28;20168;-70
2024/04/02 07:06:30;;;;;;;20.23;18.73;;;8.70;99.90;;;;;;4997196;28;20041;-69
2024/04/02 07:08:59;;;;;;;18.98;17.70;;;8.70;99.90;;;;;;4978108;28;20142;-69
2024/04/02 07:11:25;;;;;;;20.00;18.70;;;8.70;99.90;;;;;;5007625;28;20625;-69
2024/04/02 07:13:52;;;;;;;19.67;17.98;;;8.80;99.90;;;;;;4974896;28;20709;-71
2024/04/02 07:16:18;;;;;;;20.33;18.98;;;8.80;99.90;;;;;;4994625;28;20136;-70
2024/04/02 07:18:44;;;;;;;18.50;17.30;;;8.80;99.90;;;;;;4980672;28;20069;-70
2024/04/02 07:21:10;;;;;;;19.17;17.77;;;8.80;99.90;;;;;;4984143;28;20268;-69
2024/04/02 07:23:37;;;;;;;19.60;18.50;;;8.80;99.90;;;;;;4986601;28;20042;-70
2024/04/02 07:26:04;;;;;;;19.17;17.98;;;8.80;99.90;;;;;;4993209;28;20042;-70
2024/04/02 07:28:30;;;;;;;19.80;18.60;;;8.80;99.90;;;;;;4974734;28;20110;-71
2024/04/02 07:30:56;;;;;;;18.70;17.58;;;8.80;99.90;;;;;;4965309;28;20049;-69
2024/04/02 07:33:22;;;;;;;17.98;16.77;;;8.80;99.90;;;;;;4982135;28;20076;-70
2024/04/02 07:35:53;;;;;;;16.50;15.60;;;8.70;99.90;;;;;;4967811;28;20058;-69
2024/04/02 07:38:19;;;;;;;14.98;13.80;;;8.60;99.90;;;;;;4992763;28;20112;-72
2024/04/02 07:40:45;;;;;;;14.60;13.55;;;8.40;99.90;;;;;;4986266;28;20045;-71
2024/04/02 07:43:11;;;;;;;12.00;11.05;;;8.30;99.90;;;;;;4963761;28;20093;-72
2024/04/02 07:45:38;;;;;;;10.57;9.82;;;8.20;99.90;;;;;;5006953;28;20042;-73
2024/04/02 07:48:04;;;;;;;9.80;9.30;;;8.10;99.90;;;;;;4983117;28;20042;-71
2024/04/02 07:50:32;;;;;;;11.20;10.35;;;8.10;99.90;;;;;;4983136;28;20034;-71
2024/04/02 07:53:00;;;;;;;10.93;10.02;;;8.20;99.90;;;;;;4984942;28;20049;-71
2024/04/02 07:55:26;;;;;;;9.00;8.40;;;8.20;99.90;;;;;;4985726;28;20041;-72
2024/04/02 07:57:52;;;;;;;10.73;9.73;;;8.10;99.90;;;;;;4976030;28;20108;-72
2024/04/02 08:00:18;;;;;;;10.57;9.50;;;8.10;99.90;;;;;;4983491;28;22813;-70
2024/04/02 08:02:48;;;;;;;9.45;7.65;;;8.10;99.90;;;;;;4973986;28;20403;-72
2024/04/02 08:05:16;;;;;;;11.48;9.32;;;8.00;99.90;;;;;;4978085;28;20072;-72
2024/04/02 08:07:45;;;;;;;9.90;8.32;;;8.00;99.90;;;;;;4983053;28;20053;-73
2024/04/02 08:10:14;;;;;;;11.20;9.15;;;8.10;99.90;;;;;;4994643;28;21288;-72
2024/04/02 08:12:41;;;;;;;15.55;9.10;;;8.10;99.90;;;;;;4996103;28;20048;-73
2024/04/02 08:15:08;;;;;;;11.20;8.20;;;8.00;99.90;;;;;;4980976;28;20049;-71
2024/04/02 08:17:35;;;;;;;11.63;7.40;;;8.10;99.90;;;;;;4976419;28;20078;-73
2024/04/02 08:20:03;;;;;;;12.68;8.55;;;8.10;99.90;;;;;;4980695;28;20831;-70
2024/04/02 08:22:30;;;;;;;14.57;8.43;;;8.10;99.90;;;;;;4981728;28;20044;-73
2024/04/02 08:24:56;;;;;;;12.77;8.90;;;8.20;99.90;;;;;;4985258;28;20038;-72
2024/04/02 08:27:23;;;;;;;11.05;7.95;;;8.20;99.90;;;;;;4992777;28;20057;-71
2024/04/02 08:29:50;;;;;;;13.02;8.88;;;8.20;99.90;;;;;;5000396;28;20042;-73
2024/04/02 08:32:17;;;;;;;11.63;8.45;;;8.30;99.90;;;;;;4982302;28;20556;-72
2024/04/02 08:34:43;;;;;;;11.30;7.53;;;8.30;99.90;;;;;;4979949;28;20670;-71
2024/04/02 08:37:09;;;;;;;11.32;9.23;;;8.50;99.90;;;;;;4988758;28;20049;-71
2024/04/02 08:39:35;;;;;;;13.73;8.93;;;8.50;99.90;;;;;;4980891;28;20103;-71
2024/04/02 08:42:03;;;;;;;14.35;9.38;;;8.40;99.90;;;;;;4994734;28;20046;-71
2024/04/02 08:44:32;;;;;;;10.07;8.93;;;8.50;99.90;;;;;;4968233;28;20064;-72
2024/04/02 08:46:59;;;;;;;13.32;9.18;;;8.50;99.90;;;;;;4980280;28;20685;-73
2024/04/02 08:49:25;;;;;;;12.55;9.55;;;8.40;99.90;;;;;;4966172;28;20704;-72
2024/04/02 08:51:53;;;;;;;15.98;9.40;;;8.40;99.90;;;;;;4997289;28;20046;-72
2024/04/02 08:54:19;;;;;;;12.00;10.32;;;8.40;99.90;;;;;;5001854;28;20118;-73
2024/04/02 08:56:46;;;;;;;13.25;10.77;;;8.40;99.90;;;;;;4992683;28;20038;-72
2024/04/02 08:59:13;;;;;;;15.57;10.68;;;8.50;99.90;;;;;;4983740;28;20061;-73
2024/04/02 09:01:41;;;;;;;20.23;14.60;;;8.50;99.90;;;;;;4967879;28;20046;-73
2024/04/02 09:04:09;;;;;;;20.52;14.13;;;8.60;99.90;;;;;;4993358;28;20038;-73
2024/04/02 09:06:37;;;;;;;14.40;12.93;;;8.80;99.90;;;;;;4971574;28;20045;-72
2024/04/02 09:09:06;;;;;;;17.80;13.85;;;8.80;99.90;;;;;;4982351;28;20080;-70
2024/04/02 09:11:34;;;;;;;14.82;13.00;;;9.10;99.90;;;;;;4998910;28;20042;-72
2024/04/02 09:14:03;;;;;;;19.33;15.68;;;9.10;99.90;;;;;;4970636;28;20038;-73
2024/04/02 09:16:32;;;;;;;19.33;15.23;;;9.20;99.90;;;;;;4969290;28;20057;-72
2024/04/02 09:18:59;;;;;;;30.95;16.65;;;9.50;99.90;;;;;;4982376;28;20050;-72
2024/04/02 09:21:26;;;;;;;18.83;16.33;;;9.70;99.90;;;;;;4983720;28;20061;-70
2024/04/02 09:23:54;;;;;;;24.40;21.77;;;9.70;99.90;;;;;;5005122;28;20795;-72
2024/04/02 09:26:22;;;;;;;20.40;18.65;;;9.90;99.90;;;;;;5013219;28;20075;-72
2024/04/02 09:28:49;;;;;;;23.33;20.27;;;10.10;99.90;;;;;;4977565;28;20037;-72
2024/04/02 09:31:16;;;;;;;21.20;19.10;;;10.00;99.90;;;;;;4978399;28;20041;-73
2024/04/02 09:33:47;;;;;;;20.65;18.88;;;9.90;99.90;;;;;;4982891;28;20064;-72
2024/04/02 09:36:39;;;;;;;20.92;19.27;;;9.80;99.90;;;;;;4992117;28;20053;-72
2024/04/02 09:39:10;;;;;;;22.38;20.10;;;9.80;99.90;;;;;;4996594;28;20173;-71
2024/04/02 09:41:40;;;;;;;23.05;21.13;;;9.90;99.90;;;;;;4983953;28;20034;-72
2024/04/02 09:44:15;;;;;;;23.17;20.95;;;10.10;99.90;;;;;;4979274;28;20049;-71
2024/04/02 09:46:42;;;;;;;24.45;21.88;;;10.20;99.90;;;;;;5003747;28;20673;-72
2024/04/02 09:49:11;;;;;;;25.30;22.88;;;10.20;99.90;;;;;;4994441;28;20038;-71
2024/04/02 09:51:41;;;;;;;24.92;23.08;;;10.30;99.90;;;;;;4997017;28;20049;-71
2024/04/02 09:54:08;;;;;;;23.98;22.20;;;10.50;99.90;;;;;;4996299;28;20773;-71
2024/04/02 09:56:35;;;;;;;29.30;24.33;;;10.40;99.90;;;;;;4998207;28;20513;-72
2024/04/02 09:59:03;;;;;;;26.58;24.10;;;10.20;99.90;;;;;;4997787;28;20054;-72
2024/04/02 10:01:32;;;;;;;24.98;23.23;;;10.20;99.90;;;;;;4992450;28;20045;-71
2024/04/02 10:04:09;;;;;;;23.65;21.50;;;10.00;99.90;;;;;;4978893;28;20041;-71
2024/04/02 10:06:36;;;;;;;25.50;22.85;;;9.90;99.90;;;;;;4998570;28;20045;-73
2024/04/02 10:09:05;;;;;;;25.35;20.98;;;9.80;99.90;;;;;;5001240;28;20054;-71
2024/04/02 10:11:42;;;;;;;26.00;23.38;;;9.70;99.90;;;;;;4981439;28;20136;-70
2024/04/02 10:14:12;;;;;;;24.63;22.88;;;9.80;99.90;;;;;;4975500;28;20050;-72
2024/04/02 10:16:43;;;;;;;23.92;22.10;;;9.90;99.90;;;;;;5006442;28;20042;-72
2024/04/02 10:19:13;;;;;;;24.90;23.02;;;10.00;99.90;;;;;;4984649;28;20072;-70
2024/04/02 10:21:39;;;;;;;24.85;22.67;;;10.20;99.90;;;;;;4986312;28;20048;-70
2024/04/02 10:24:09;;;;;;;26.83;24.58;;;10.40;99.90;;;;;;4975688;28;20064;-69
2024/04/02 10:26:38;;;;;;;26.17;24.25;;;10.70;99.90;;;;;;4979625;28;20085;-71
2024/04/02 10:29:05;;;;;;;27.63;25.10;;;10.90;99.90;;;;;;4983692;28;20048;-71
2024/04/02 10:31:38;;;;;;;27.77;25.35;;;10.90;99.90;;;;;;4980240;28;20048;-71
2024/04/02 10:34:12;;;;;;;24.95;22.40;;;11.00;99.90;;;;;;4980951;28;20132;-69
2024/04/02 10:36:41;;;;;;;24.73;22.52;;;10.80;99.90;;;;;;4977305;28;20153;-70
2024/04/02 10:39:11;;;;;;;24.02;22.40;;;10.60;99.90;;;;;;5008212;28;20050;-70
2024/04/02 10:41:38;;;;;;;24.17;22.17;;;10.40;99.90;;;;;;4977875;28;20042;-70
2024/04/02 10:44:07;;;;;;;21.63;19.92;;;10.30;99.90;;;;;;5010393;28;20539;-70
2024/04/02 10:46:37;;;;;;;23.20;21.33;;;10.10;99.90;;;;;;4986002;28;20040;-71
2024/04/02 10:49:04;;;;;;;24.15;22.02;;;10.00;99.90;;;;;;4999440;28;20538;-71
2024/04/02 10:51:31;;;;;;;23.15;21.20;;;10.00;99.90;;;;;;4993047;28;20076;-70
2024/04/02 10:53:59;;;;;;;26.05;23.65;;;10.30;99.90;;;;;;4996571;28;20041;-70
2024/04/02 10:56:26;;;;;;;23.05;21.38;;;10.70;99.90;;;;;;4981164;28;20042;-71
2024/04/02 10:58:56;;;;;;;24.33;22.10;;;11.00;99.90;;;;;;4990306;28;20057;-70
2024/04/02 11:01:22;;;;;;;22.73;20.77;;;11.20;99.90;;;;;;4991075;28;20031;-70
2024/04/02 11:03:53;;;;;;;24.48;22.10;;;11.20;99.90;;;;;;4988350;28;20046;-69
2024/04/02 11:06:21;;;;;;;22.92;20.75;;;11.20;99.90;;;;;;5015576;28;20076;-71
2024/04/02 11:08:51;;;;;;;23.77;21.65;;;11.20;99.90;;;;;;5011233;28;20103;-70
2024/04/02 11:11:22;;;;;;;23.98;21.98;;;11.10;99.90;;;;;;4997974;28;20988;-73
2024/04/02 11:13:49;;;;;;;23.20;21.02;;;11.10;99.90;;;;;;4999320;28;20077;-70
2024/04/02 11:16:16;;;;;;;22.58;20.67;;;11.30;99.90;;;;;;4985027;28;20454;-71
2024/04/02 11:18:42;;;;;;;25.02;22.75;;;11.40;99.90;;;;;;4995882;28;20118;-70
2024/04/02 11:21:16;;;;;;;24.73;22.90;;;11.10;99.90;;;;;;5004980;28;20045;-69
2024/04/02 11:26:27;;;;;;;;;;;10.80;99.90;;;;;;5009223;28;20037;-72
2024/04/02 11:29:05;;;;;;;25.00;22.80;;;10.90;99.90;;;;;;4978418;28;19921;-70
2024/04/02 11:31:32;;;;;;;25.60;22.40;;;10.90;99.90;;;;;;5008774;28;20061;-71
2024/04/02 11:34:00;;;;;;;26.05;23.48;;;11.00;99.90;;;;;;4985271;28;20049;-69
2024/04/02 11:36:26;;;;;;;26.65;23.98;;;11.10;99.90;;;;;;4998649;28;20050;-71
2024/04/02 11:38:52;;;;;;;25.70;23.80;;;11.20;99.90;;;;;;4995340;28;20128;-70
2024/04/02 11:41:18;;;;;;;26.88;24.10;;;11.20;99.90;;;;;;4997963;28;20066;-70
2024/04/02 11:43:45;;;;;;;24.50;22.52;;;11.20;99.90;;;;;;5025667;28;20073;-70
2024/04/02 11:46:11;;;;;;;24.85;23.05;;;11.10;99.90;;;;;;4995560;28;20192;-70
2024/04/02 11:48:37;;;;;;;26.58;24.55;;;10.90;99.90;;;;;;4996307;28;20406;-71
2024/04/02 11:51:04;;;;;;;27.35;25.45;;;10.90;99.90;;;;;;5004225;28;20038;-71
2024/04/02 11:53:30;;;;;;;28.20;25.48;;;11.00;99.90;;;;;;5007670;28;20058;-70
2024/04/02 11:55:56;;;;;;;28.05;25.85;;;11.00;99.90;;;;;;4983445;28;20034;-71
2024/04/02 12:01:07;;;;;;;26.40;24.63;;;11.00;99.90;;;;;;4993862;28;20030;-71
2024/04/02 12:03:33;;;;;;;26.58;24.75;;;11.10;99.90;;;;;;5008537;28;20433;-71
2024/04/02 12:05:59;;;;;;;26.80;24.50;;;11.20;99.90;;;;;;4960480;28;20441;-71
2024/04/02 12:08:26;;;;;;;27.77;25.77;;;11.20;99.90;;;;;;4984256;28;20040;-70
2024/04/02 12:10:52;;;;;;;28.98;26.42;;;11.10;99.90;;;;;;5001402;28;20191;-70
2024/04/02 12:13:18;;;;;;;27.85;25.95;;;11.00;99.90;;;;;;5019372;28;20096;-70
2024/04/02 12:15:44;;;;;;;25.13;23.27;;;11.00;99.90;;;;;;4989587;28;20041;-69
2024/04/02 12:18:11;;;;;;;28.98;26.27;;;10.90;99.90;;;;;;4997360;28;20050;-71
2024/04/02 12:20:36;;;;;;;27.40;25.05;;;11.00;99.90;;;;;;4990734;28;20093;-71
2024/04/02 12:23:04;;;;;;;29.70;26.75;;;11.10;99.90;;;;;;5005921;28;20034;-71
2024/04/02 12:25:30;;;;;;;26.60;24.65;;;11.20;99.90;;;;;;4997841;28;20030;-71
2024/04/02 12:27:58;;;;;;;27.08;24.92;;;11.30;99.90;;;;;;4975898;28;20175;-71
2024/04/02 12:30:24;;;;;;;26.45;24.48;;;11.40;99.90;;;;;;4964269;28;20038;-71
2024/04/02 12:32:50;;;;;;;27.55;25.52;;;11.40;99.90;;;;;;4981538;28;20084;-69
2024/04/02 12:35:16;;;;;;;25.92;23.77;;;11.30;99.90;;;;;;5012627;28;20057;-70
2024/04/02 12:37:43;;;;;;;28.08;25.73;;;11.50;99.90;;;;;;5009403;28;20696;-69
2024/04/02 12:40:12;;;;;;;31.92;29.23;;;11.40;99.90;;;;;;4985504;28;20038;-72